Date,TemperatureHighF,TemperatureAvgF,TemperatureLowF,DewpointHighF,DewpointAvgF,DewpointLowF,HumidityHigh,HumidityAvg,HumidityLow,PressureMaxIn,PressureMinIn,WindSpeedMaxMPH,WindSpeedAvgMPH,GustSpeedMaxMPH,PrecipitationSumIn
2013-3-1,40.1,34.7,30.9,32.8,30.5,28.7,99,85,65,29.59,29.45,9,2,0,0.00
2013-3-2,46.6,35.7,27.3,31.7,28.4,26.3,99,77,49,29.58,29.51,8,1,0,0.00
2013-3-3,43.3,34.7,29.5,36.8,30.5,25.1,99,85,65,29.56,29.46,7,2,0,0.14
2013-3-4,37.6,31.5,27.5,26.3,23.3,21.1,79,72,60,29.65,29.46,15,5,0,0.00
2013-3-5,29.5,27.6,27.5,22.4,21.4,21.3,77,77,74,29.68,29.65,5,4,0,0.00
2013-3-6,27.5,27.5,27.5,21.3,21.3,21.3,77,77,77,29.68,29.68,4,4,0,0.00
2013-3-7,27.5,27.5,27.5,21.3,21.3,21.3,77,77,77,29.68,29.68,4,4,0,0.00
2013-3-8,27.5,27.5,27.5,21.3,21.3,21.3,77,77,77,29.68,29.68,4,4,0,0.00
2013-3-9,38.7,28.5,25.2,28.3,23.5,21.3,99,82,66,30.29,29.68,4,3,0,0.12
2013-3-10,31.3,28.5,20.5,27.9,26.2,20.2,99,91,85,30.35,30.29,3,2,0,0.00
2013-3-11,31.3,31.3,31.3,27.9,27.9,27.9,87,87,87,30.35,30.35,2,2,0,0.00
2013-3-12,31.3,31.3,31.3,27.9,27.9,27.9,87,87,87,30.35,30.35,2,2,0,0.00
2013-3-13,50.2,37.3,29.3,37.3,28.2,22.1,87,71,46,30.35,29.61,7,2,0,0.00
2013-3-14,37.9,30.0,19.0,24.9,16.8,4.8,96,59,41,29.72,29.57,13,4,0,0.00
2013-3-15,39.7,26.5,15.6,30.0,12.3,3.1,99,58,30,29.74,29.53,9,3,0,0.00
2013-3-16,36.7,28.4,19.0,27.9,15.5,8.8,99,62,36,29.80,29.58,9,2,0,0.07
2013-3-17,32.7,24.9,16.2,13.4,6.7,-1.2,80,48,28,30.24,29.80,13,4,0,0.00
2013-3-18,40.5,24.6,8.8,22.7,7.2,-1.1,76,51,22,30.38,30.19,6,1,0,0.00
2013-3-19,33.1,29.3,23.5,32.7,28.9,23.2,99,99,88,30.18,29.60,5,0,0,0.00
2013-3-20,43.7,29.3,21.9,27.8,23.2,18.8,99,80,50,29.69,29.59,0,0,0,0.12
2013-3-21,47.5,28.4,14.4,23.4,18.2,12.9,99,71,31,29.70,29.51,5,1,0,0.32
2013-3-22,42.1,31.8,22.5,24.2,18.8,13.7,99,61,34,29.61,29.52,9,2,0,0.00
2013-3-23,42.6,32.8,22.6,23.5,19.9,17.3,83,60,38,29.66,29.50,17,4,0,0.00
2013-3-24,48.4,37.5,29.3,27.7,23.5,21.6,76,58,37,29.72,29.63,12,3,0,0.00
2013-3-25,43.5,34.9,24.8,31.9,26.7,21.9,90,72,55,29.70,29.48,9,3,0,0.00
2013-3-26,48.7,40.8,30.7,26.8,21.5,18.8,70,48,31,29.68,29.49,13,4,0,0.00
2013-3-27,52.2,39.3,27.1,35.4,26.5,22.1,97,63,36,29.81,29.65,8,3,0,0.00
2013-3-28,49.3,40.7,33.8,36.1,32.1,28.3,99,74,46,29.93,29.80,8,2,0,0.02
2013-3-29,55.8,43.7,34.9,36.1,32.0,29.6,87,65,37,29.96,29.89,9,2,0,0.00
2013-3-30,55.8,42.8,33.3,31.2,24.1,15.4,87,53,24,30.01,29.92,9,2,0,0.00
2013-3-31,56.5,42.1,24.4,39.7,26.0,18.6,92,56,28,30.04,29.72,8,2,0,0.00